sensor_id;sensor_type;location;lat;lon;timestamp;P1;durP1;ratioP1;P2;durP2;ratioP2
2810;SDS011;1413;52.440;13.506;2023-03-13T00:00:55;11.65;;;3.92;;
2810;SDS011;1413;52.440;13.506;2023-03-13T00:03:23;12.32;;;4.55;;
2810;SDS011;1413;52.440;13.506;2023-03-13T00:05:54;11.13;;;4.28;;
2810;SDS011;1413;52.440;13.506;2023-03-13T00:08:23;14.23;;;4.47;;
2810;SDS011;1413;52.440;13.506;2023-03-13T00:10:50;10.98;;;3.83;;
2810;SDS011;1413;52.440;13.506;2023-03-13T00:13:18;13.13;;;4.25;;
2810;SDS011;1413;52.440;13.506;2023-03-13T00:15:45;8.10;;;3.35;;
2810;SDS011;1413;52.440;13.506;2023-03-13T00:18:13;9.05;;;3.90;;
2810;SDS011;1413;52.440;13.506;2023-03-13T00:20:41;14.15;;;4.72;;
2810;SDS011;1413;52.440;13.506;2023-03-13T00:23:08;10.30;;;4.57;;
2810;SDS011;1413;52.440;13.506;2023-03-13T00:25:37;15.63;;;5.50;;
2810;SDS011;1413;52.440;13.506;2023-03-13T00:28:04;14.32;;;4.43;;
2810;SDS011;1413;52.440;13.506;2023-03-13T00:30:32;11.93;;;5.22;;
2810;SDS011;1413;52.440;13.506;2023-03-13T00:32:59;21.10;;;4.95;;
2810;SDS011;1413;52.440;13.506;2023-03-13T00:35:27;15.02;;;5.45;;
2810;SDS011;1413;52.440;13.506;2023-03-13T00:37:54;11.77;;;4.47;;
2810;SDS011;1413;52.440;13.506;2023-03-13T00:40:22;17.63;;;6.10;;
2810;SDS011;1413;52.440;13.506;2023-03-13T00:42:51;19.45;;;6.32;;
2810;SDS011;1413;52.440;13.506;2023-03-13T00:45:18;16.08;;;6.13;;
2810;SDS011;1413;52.440;13.506;2023-03-13T00:47:46;20.38;;;6.70;;
2810;SDS011;1413;52.440;13.506;2023-03-13T00:50:15;16.63;;;4.93;;
2810;SDS011;1413;52.440;13.506;2023-03-13T00:52:42;17.70;;;6.88;;
2810;SDS011;1413;52.440;13.506;2023-03-13T00:55:10;11.30;;;4.88;;
2810;SDS011;1413;52.440;13.506;2023-03-13T00:57:37;17.63;;;6.18;;
2810;SDS011;1413;52.440;13.506;2023-03-13T01:00:07;18.92;;;6.07;;
2810;SDS011;1413;52.440;13.506;2023-03-13T01:02:39;10.82;;;5.03;;
2810;SDS011;1413;52.440;13.506;2023-03-13T01:05:07;14.80;;;5.75;;
2810;SDS011;1413;52.440;13.506;2023-03-13T01:07:35;24.27;;;8.13;;
2810;SDS011;1413;52.440;13.506;2023-03-13T01:10:03;19.05;;;6.13;;
2810;SDS011;1413;52.440;13.506;2023-03-13T01:12:31;13.73;;;5.22;;
2810;SDS011;1413;52.440;13.506;2023-03-13T01:14:58;17.73;;;6.90;;
2810;SDS011;1413;52.440;13.506;2023-03-13T01:17:27;15.50;;;7.00;;
2810;SDS011;1413;52.440;13.506;2023-03-13T01:19:56;18.85;;;6.50;;
2810;SDS011;1413;52.440;13.506;2023-03-13T01:22:24;15.35;;;5.93;;
2810;SDS011;1413;52.440;13.506;2023-03-13T01:24:52;16.50;;;6.72;;
2810;SDS011;1413;52.440;13.506;2023-03-13T01:27:20;17.27;;;5.88;;
2810;SDS011;1413;52.440;13.506;2023-03-13T01:29:47;15.55;;;6.40;;
2810;SDS011;1413;52.440;13.506;2023-03-13T01:32:15;15.77;;;6.78;;
2810;SDS011;1413;52.440;13.506;2023-03-13T01:34:44;18.30;;;7.05;;
2810;SDS011;1413;52.440;13.506;2023-03-13T01:37:11;17.50;;;6.93;;
2810;SDS011;1413;52.440;13.506;2023-03-13T01:39:39;14.63;;;6.55;;
2810;SDS011;1413;52.440;13.506;2023-03-13T01:42:06;15.02;;;6.95;;
2810;SDS011;1413;52.440;13.506;2023-03-13T01:44:48;16.05;;;7.18;;
2810;SDS011;1413;52.440;13.506;2023-03-13T01:47:16;13.80;;;6.72;;
2810;SDS011;1413;52.440;13.506;2023-03-13T01:49:45;12.63;;;5.97;;
2810;SDS011;1413;52.440;13.506;2023-03-13T01:52:14;14.18;;;6.18;;
2810;SDS011;1413;52.440;13.506;2023-03-13T01:54:43;13.10;;;6.05;;
2810;SDS011;1413;52.440;13.506;2023-03-13T01:57:14;13.15;;;6.47;;
2810;SDS011;1413;52.440;13.506;2023-03-13T01:59:44;14.32;;;5.97;;
2810;SDS011;1413;52.440;13.506;2023-03-13T02:02:13;14.13;;;6.18;;
2810;SDS011;1413;52.440;13.506;2023-03-13T02:04:44;13.73;;;5.65;;
2810;SDS011;1413;52.440;13.506;2023-03-13T02:07:14;12.82;;;6.80;;
2810;SDS011;1413;52.440;13.506;2023-03-13T02:09:43;22.77;;;6.20;;
2810;SDS011;1413;52.440;13.506;2023-03-13T02:14:42;12.35;;;5.40;;
2810;SDS011;1413;52.440;13.506;2023-03-13T02:17:11;13.95;;;5.45;;
2810;SDS011;1413;52.440;13.506;2023-03-13T02:19:40;12.40;;;5.05;;
2810;SDS011;1413;52.440;13.506;2023-03-13T02:22:10;14.05;;;5.25;;
2810;SDS011;1413;52.440;13.506;2023-03-13T02:24:42;13.40;;;4.97;;
2810;SDS011;1413;52.440;13.506;2023-03-13T02:27:13;12.25;;;4.70;;
2810;SDS011;1413;52.440;13.506;2023-03-13T02:29:40;14.07;;;4.60;;
2810;SDS011;1413;52.440;13.506;2023-03-13T02:32:09;12.18;;;4.32;;
2810;SDS011;1413;52.440;13.506;2023-03-13T02:34:37;11.75;;;4.18;;
2810;SDS011;1413;52.440;13.506;2023-03-13T02:37:05;11.30;;;3.83;;
2810;SDS011;1413;52.440;13.506;2023-03-13T02:39:36;9.93;;;4.05;;
2810;SDS011;1413;52.440;13.506;2023-03-13T02:42:05;13.88;;;4.25;;
2810;SDS011;1413;52.440;13.506;2023-03-13T02:44:37;11.63;;;4.45;;
2810;SDS011;1413;52.440;13.506;2023-03-13T02:47:05;11.88;;;4.43;;
2810;SDS011;1413;52.440;13.506;2023-03-13T02:49:35;10.05;;;3.92;;
2810;SDS011;1413;52.440;13.506;2023-03-13T02:52:04;14.00;;;4.10;;
2810;SDS011;1413;52.440;13.506;2023-03-13T02:54:35;10.82;;;3.50;;
2810;SDS011;1413;52.440;13.506;2023-03-13T02:57:04;11.50;;;3.10;;
2810;SDS011;1413;52.440;13.506;2023-03-13T02:59:31;15.07;;;4.00;;
2810;SDS011;1413;52.440;13.506;2023-03-13T03:02:01;10.75;;;2.72;;
2810;SDS011;1413;52.440;13.506;2023-03-13T03:04:29;9.38;;;3.35;;
2810;SDS011;1413;52.440;13.506;2023-03-13T03:06:57;11.98;;;3.30;;
2810;SDS011;1413;52.440;13.506;2023-03-13T03:09:24;11.98;;;2.97;;
2810;SDS011;1413;52.440;13.506;2023-03-13T03:11:52;13.25;;;2.75;;
2810;SDS011;1413;52.440;13.506;2023-03-13T03:14:19;9.57;;;2.97;;
2810;SDS011;1413;52.440;13.506;2023-03-13T03:16:47;9.63;;;2.95;;
2810;SDS011;1413;52.440;13.506;2023-03-13T03:19:16;11.63;;;2.70;;
2810;SDS011;1413;52.440;13.506;2023-03-13T03:21:44;10.23;;;2.85;;
2810;SDS011;1413;52.440;13.506;2023-03-13T03:24:11;9.65;;;2.53;;
2810;SDS011;1413;52.440;13.506;2023-03-13T03:26:39;8.25;;;2.55;;
2810;SDS011;1413;52.440;13.506;2023-03-13T03:29:06;14.73;;;2.92;;
2810;SDS011;1413;52.440;13.506;2023-03-13T03:31:36;11.45;;;2.40;;
2810;SDS011;1413;52.440;13.506;2023-03-13T03:34:03;7.63;;;2.45;;
2810;SDS011;1413;52.440;13.506;2023-03-13T03:36:32;8.15;;;1.70;;
2810;SDS011;1413;52.440;13.506;2023-03-13T03:39:00;11.70;;;2.25;;
2810;SDS011;1413;52.440;13.506;2023-03-13T03:41:27;12.43;;;2.53;;
2810;SDS011;1413;52.440;13.506;2023-03-13T03:43:55;9.70;;;2.60;;
2810;SDS011;1413;52.440;13.506;2023-03-13T03:46:22;12.52;;;2.75;;
2810;SDS011;1413;52.440;13.506;2023-03-13T03:48:50;12.70;;;2.78;;
2810;SDS011;1413;52.440;13.506;2023-03-13T03:51:18;11.05;;;2.67;;
2810;SDS011;1413;52.440;13.506;2023-03-13T03:53:47;19.02;;;2.70;;
2810;SDS011;1413;52.440;13.506;2023-03-13T03:56:14;22.48;;;3.25;;
2810;SDS011;1413;52.440;13.506;2023-03-13T03:58:41;10.52;;;2.30;;
2810;SDS011;1413;52.440;13.506;2023-03-13T04:01:09;11.90;;;2.45;;
2810;SDS011;1413;52.440;13.506;2023-03-13T04:03:37;13.63;;;2.65;;
2810;SDS011;1413;52.440;13.506;2023-03-13T04:06:04;7.60;;;1.90;;
2810;SDS011;1413;52.440;13.506;2023-03-13T04:08:33;12.35;;;2.42;;
2810;SDS011;1413;52.440;13.506;2023-03-13T04:11:02;8.20;;;2.35;;
2810;SDS011;1413;52.440;13.506;2023-03-13T04:13:29;12.68;;;2.17;;
2810;SDS011;1413;52.440;13.506;2023-03-13T04:15:57;10.75;;;2.42;;
2810;SDS011;1413;52.440;13.506;2023-03-13T04:18:24;14.23;;;2.38;;
2810;SDS011;1413;52.440;13.506;2023-03-13T04:20:59;10.70;;;2.50;;
2810;SDS011;1413;52.440;13.506;2023-03-13T04:23:26;14.93;;;2.53;;
2810;SDS011;1413;52.440;13.506;2023-03-13T04:25:54;11.57;;;2.80;;
2810;SDS011;1413;52.440;13.506;2023-03-13T04:28:23;10.27;;;2.28;;
2810;SDS011;1413;52.440;13.506;2023-03-13T04:30:50;13.27;;;2.67;;
2810;SDS011;1413;52.440;13.506;2023-03-13T04:33:22;13.77;;;2.33;;
2810;SDS011;1413;52.440;13.506;2023-03-13T04:35:50;13.50;;;2.13;;
2810;SDS011;1413;52.440;13.506;2023-03-13T04:38:17;9.10;;;2.20;;
2810;SDS011;1413;52.440;13.506;2023-03-13T04:40:45;10.35;;;2.30;;
2810;SDS011;1413;52.440;13.506;2023-03-13T04:43:13;10.13;;;2.00;;
2810;SDS011;1413;52.440;13.506;2023-03-13T04:45:41;12.23;;;2.17;;
2810;SDS011;1413;52.440;13.506;2023-03-13T04:48:09;8.55;;;2.00;;
2810;SDS011;1413;52.440;13.506;2023-03-13T04:50:37;15.50;;;2.45;;
2810;SDS011;1413;52.440;13.506;2023-03-13T04:53:04;10.68;;;2.42;;
2810;SDS011;1413;52.440;13.506;2023-03-13T04:55:31;13.15;;;2.40;;
2810;SDS011;1413;52.440;13.506;2023-03-13T04:57:59;13.80;;;2.28;;
2810;SDS011;1413;52.440;13.506;2023-03-13T05:00:26;14.15;;;3.15;;
2810;SDS011;1413;52.440;13.506;2023-03-13T05:02:55;12.18;;;3.30;;
2810;SDS011;1413;52.440;13.506;2023-03-13T05:05:23;12.55;;;2.42;;
2810;SDS011;1413;52.440;13.506;2023-03-13T05:07:50;7.75;;;1.85;;
2810;SDS011;1413;52.440;13.506;2023-03-13T05:10:18;18.42;;;2.50;;
2810;SDS011;1413;52.440;13.506;2023-03-13T05:12:46;13.10;;;2.38;;
2810;SDS011;1413;52.440;13.506;2023-03-13T05:15:13;11.00;;;2.28;;
2810;SDS011;1413;52.440;13.506;2023-03-13T05:17:41;15.77;;;3.00;;
2810;SDS011;1413;52.440;13.506;2023-03-13T05:20:10;17.95;;;2.75;;
2810;SDS011;1413;52.440;13.506;2023-03-13T05:22:38;11.15;;;2.08;;
2810;SDS011;1413;52.440;13.506;2023-03-13T05:25:05;10.88;;;2.25;;
2810;SDS011;1413;52.440;13.506;2023-03-13T05:27:33;16.52;;;2.10;;
2810;SDS011;1413;52.440;13.506;2023-03-13T05:30:00;14.38;;;2.28;;
2810;SDS011;1413;52.440;13.506;2023-03-13T05:32:28;10.95;;;2.38;;
2810;SDS011;1413;52.440;13.506;2023-03-13T05:34:55;15.55;;;2.30;;
2810;SDS011;1413;52.440;13.506;2023-03-13T05:37:24;13.48;;;2.20;;
2810;SDS011;1413;52.440;13.506;2023-03-13T05:39:52;14.95;;;2.15;;
2810;SDS011;1413;52.440;13.506;2023-03-13T05:42:20;18.10;;;2.50;;
2810;SDS011;1413;52.440;13.506;2023-03-13T05:44:47;14.85;;;2.85;;
2810;SDS011;1413;52.440;13.506;2023-03-13T05:47:15;7.82;;;1.90;;
2810;SDS011;1413;52.440;13.506;2023-03-13T05:49:43;15.75;;;2.90;;
2810;SDS011;1413;52.440;13.506;2023-03-13T05:52:11;12.90;;;2.72;;
2810;SDS011;1413;52.440;13.506;2023-03-13T05:54:40;16.80;;;2.13;;
2810;SDS011;1413;52.440;13.506;2023-03-13T05:57:07;12.68;;;2.10;;
2810;SDS011;1413;52.440;13.506;2023-03-13T05:59:35;13.93;;;2.50;;
2810;SDS011;1413;52.440;13.506;2023-03-13T06:02:02;15.55;;;2.55;;
2810;SDS011;1413;52.440;13.506;2023-03-13T06:04:30;13.20;;;2.38;;
2810;SDS011;1413;52.440;13.506;2023-03-13T06:06:57;14.68;;;2.58;;
2810;SDS011;1413;52.440;13.506;2023-03-13T06:09:25;17.38;;;2.75;;
2810;SDS011;1413;52.440;13.506;2023-03-13T06:11:54;17.75;;;3.15;;
2810;SDS011;1413;52.440;13.506;2023-03-13T06:14:22;19.45;;;3.10;;
2810;SDS011;1413;52.440;13.506;2023-03-13T06:16:49;13.82;;;2.08;;
2810;SDS011;1413;52.440;13.506;2023-03-13T06:19:17;10.63;;;2.38;;
2810;SDS011;1413;52.440;13.506;2023-03-13T06:21:45;10.45;;;2.63;;
2810;SDS011;1413;52.440;13.506;2023-03-13T06:24:12;11.77;;;2.38;;
2810;SDS011;1413;52.440;13.506;2023-03-13T06:26:40;18.13;;;2.42;;
2810;SDS011;1413;52.440;13.506;2023-03-13T06:29:09;14.55;;;3.13;;
2810;SDS011;1413;52.440;13.506;2023-03-13T06:31:36;14.68;;;2.47;;
2810;SDS011;1413;52.440;13.506;2023-03-13T06:34:04;12.38;;;2.55;;
2810;SDS011;1413;52.440;13.506;2023-03-13T06:36:31;13.95;;;2.50;;
2810;SDS011;1413;52.440;13.506;2023-03-13T06:38:59;10.60;;;2.88;;
2810;SDS011;1413;52.440;13.506;2023-03-13T06:41:26;10.98;;;2.40;;
2810;SDS011;1413;52.440;13.506;2023-03-13T06:43:54;15.20;;;2.42;;
2810;SDS011;1413;52.440;13.506;2023-03-13T06:46:23;16.50;;;2.75;;
2810;SDS011;1413;52.440;13.506;2023-03-13T06:48:51;19.75;;;3.67;;
2810;SDS011;1413;52.440;13.506;2023-03-13T06:51:19;12.98;;;3.42;;
2810;SDS011;1413;52.440;13.506;2023-03-13T06:53:47;11.55;;;2.05;;
2810;SDS011;1413;52.440;13.506;2023-03-13T06:56:17;13.02;;;3.40;;
2810;SDS011;1413;52.440;13.506;2023-03-13T06:58:47;16.13;;;2.75;;
2810;SDS011;1413;52.440;13.506;2023-03-13T07:01:15;16.58;;;2.90;;
2810;SDS011;1413;52.440;13.506;2023-03-13T07:03:45;12.55;;;2.60;;
2810;SDS011;1413;52.440;13.506;2023-03-13T07:06:13;14.63;;;2.40;;
2810;SDS011;1413;52.440;13.506;2023-03-13T07:08:41;15.75;;;2.70;;
2810;SDS011;1413;52.440;13.506;2023-03-13T07:11:09;17.25;;;3.28;;
2810;SDS011;1413;52.440;13.506;2023-03-13T07:13:37;15.77;;;2.92;;
2810;SDS011;1413;52.440;13.506;2023-03-13T07:16:05;13.32;;;2.25;;
2810;SDS011;1413;52.440;13.506;2023-03-13T07:18:33;15.90;;;2.60;;
2810;SDS011;1413;52.440;13.506;2023-03-13T07:21:02;19.25;;;2.85;;
2810;SDS011;1413;52.440;13.506;2023-03-13T07:23:31;16.27;;;3.42;;
2810;SDS011;1413;52.440;13.506;2023-03-13T07:26:00;18.15;;;2.92;;
2810;SDS011;1413;52.440;13.506;2023-03-13T07:28:28;14.07;;;2.20;;
2810;SDS011;1413;52.440;13.506;2023-03-13T07:31:02;13.02;;;2.50;;
2810;SDS011;1413;52.440;13.506;2023-03-13T07:33:30;18.65;;;2.47;;
2810;SDS011;1413;52.440;13.506;2023-03-13T07:35:57;20.13;;;2.67;;
2810;SDS011;1413;52.440;13.506;2023-03-13T07:38:26;15.25;;;2.42;;
2810;SDS011;1413;52.440;13.506;2023-03-13T07:40:54;15.90;;;2.92;;
2810;SDS011;1413;52.440;13.506;2023-03-13T07:43:22;15.00;;;3.20;;
2810;SDS011;1413;52.440;13.506;2023-03-13T07:45:51;16.80;;;2.40;;
2810;SDS011;1413;52.440;13.506;2023-03-13T07:48:19;14.10;;;2.65;;
2810;SDS011;1413;52.440;13.506;2023-03-13T07:50:46;13.45;;;3.63;;
2810;SDS011;1413;52.440;13.506;2023-03-13T07:53:14;9.70;;;2.50;;
2810;SDS011;1413;52.440;13.506;2023-03-13T07:55:54;11.55;;;2.40;;
2810;SDS011;1413;52.440;13.506;2023-03-13T07:58:22;11.18;;;2.50;;
2810;SDS011;1413;52.440;13.506;2023-03-13T08:00:50;13.73;;;2.50;;
2810;SDS011;1413;52.440;13.506;2023-03-13T08:03:18;10.80;;;2.30;;
2810;SDS011;1413;52.440;13.506;2023-03-13T08:05:45;12.68;;;2.45;;
2810;SDS011;1413;52.440;13.506;2023-03-13T08:08:13;14.20;;;2.03;;
2810;SDS011;1413;52.440;13.506;2023-03-13T08:10:40;10.75;;;2.28;;
2810;SDS011;1413;52.440;13.506;2023-03-13T08:13:09;13.43;;;2.83;;
2810;SDS011;1413;52.440;13.506;2023-03-13T08:15:37;8.65;;;2.13;;
2810;SDS011;1413;52.440;13.506;2023-03-13T08:18:04;11.77;;;2.45;;
2810;SDS011;1413;52.440;13.506;2023-03-13T08:20:32;12.98;;;1.88;;
2810;SDS011;1413;52.440;13.506;2023-03-13T08:22:59;13.13;;;2.42;;
2810;SDS011;1413;52.440;13.506;2023-03-13T08:25:27;11.38;;;1.85;;
2810;SDS011;1413;52.440;13.506;2023-03-13T08:27:54;11.00;;;2.05;;
2810;SDS011;1413;52.440;13.506;2023-03-13T08:30:23;10.82;;;2.30;;
2810;SDS011;1413;52.440;13.506;2023-03-13T08:32:51;13.50;;;2.03;;
2810;SDS011;1413;52.440;13.506;2023-03-13T08:35:18;13.88;;;2.08;;
2810;SDS011;1413;52.440;13.506;2023-03-13T08:37:46;12.35;;;2.10;;
2810;SDS011;1413;52.440;13.506;2023-03-13T08:40:14;9.65;;;1.80;;
2810;SDS011;1413;52.440;13.506;2023-03-13T08:42:41;10.63;;;2.15;;
2810;SDS011;1413;52.440;13.506;2023-03-13T08:45:09;13.15;;;2.25;;
2810;SDS011;1413;52.440;13.506;2023-03-13T08:47:38;12.02;;;2.03;;
2810;SDS011;1413;52.440;13.506;2023-03-13T08:50:06;10.25;;;1.90;;
2810;SDS011;1413;52.440;13.506;2023-03-13T08:52:33;16.08;;;2.22;;
2810;SDS011;1413;52.440;13.506;2023-03-13T08:55:01;10.75;;;2.20;;
2810;SDS011;1413;52.440;13.506;2023-03-13T08:57:28;8.75;;;1.77;;
2810;SDS011;1413;52.440;13.506;2023-03-13T08:59:56;8.02;;;1.80;;
2810;SDS011;1413;52.440;13.506;2023-03-13T09:02:23;14.60;;;2.13;;
2810;SDS011;1413;52.440;13.506;2023-03-13T09:04:52;7.82;;;1.75;;
2810;SDS011;1413;52.440;13.506;2023-03-13T09:07:19;8.70;;;1.77;;
2810;SDS011;1413;52.440;13.506;2023-03-13T09:09:47;8.35;;;2.00;;
2810;SDS011;1413;52.440;13.506;2023-03-13T09:12:14;13.88;;;2.05;;
2810;SDS011;1413;52.440;13.506;2023-03-13T09:14:55;13.25;;;2.22;;
2810;SDS011;1413;52.440;13.506;2023-03-13T09:17:22;6.95;;;1.73;;
2810;SDS011;1413;52.440;13.506;2023-03-13T09:19:53;14.35;;;2.08;;
2810;SDS011;1413;52.440;13.506;2023-03-13T09:22:26;10.75;;;2.25;;
2810;SDS011;1413;52.440;13.506;2023-03-13T09:24:53;10.63;;;1.67;;
2810;SDS011;1413;52.440;13.506;2023-03-13T09:27:21;8.15;;;2.10;;
2810;SDS011;1413;52.440;13.506;2023-03-13T09:29:48;7.47;;;1.30;;
2810;SDS011;1413;52.440;13.506;2023-03-13T09:32:16;10.75;;;2.13;;
2810;SDS011;1413;52.440;13.506;2023-03-13T09:34:45;6.28;;;1.63;;
2810;SDS011;1413;52.440;13.506;2023-03-13T09:37:14;18.02;;;1.92;;
2810;SDS011;1413;52.440;13.506;2023-03-13T09:39:42;9.55;;;1.92;;
2810;SDS011;1413;52.440;13.506;2023-03-13T09:42:12;8.95;;;1.33;;
2810;SDS011;1413;52.440;13.506;2023-03-13T09:44:42;9.95;;;1.67;;
2810;SDS011;1413;52.440;13.506;2023-03-13T09:49:40;9.25;;;1.85;;
2810;SDS011;1413;52.440;13.506;2023-03-13T09:52:11;12.10;;;1.63;;
2810;SDS011;1413;52.440;13.506;2023-03-13T09:54:41;8.50;;;2.20;;
2810;SDS011;1413;52.440;13.506;2023-03-13T09:57:13;5.93;;;1.52;;
2810;SDS011;1413;52.440;13.506;2023-03-13T09:59:43;9.73;;;1.75;;
2810;SDS011;1413;52.440;13.506;2023-03-13T10:02:18;7.07;;;1.27;;
2810;SDS011;1413;52.440;13.506;2023-03-13T10:04:48;6.18;;;1.60;;
2810;SDS011;1413;52.440;13.506;2023-03-13T10:07:18;6.68;;;1.30;;
2810;SDS011;1413;52.440;13.506;2023-03-13T10:09:47;6.43;;;1.15;;
2810;SDS011;1413;52.440;13.506;2023-03-13T10:12:16;7.63;;;1.40;;
2810;SDS011;1413;52.440;13.506;2023-03-13T10:14:47;8.98;;;1.95;;
2810;SDS011;1413;52.440;13.506;2023-03-13T10:17:19;8.35;;;1.58;;
2810;SDS011;1413;52.440;13.506;2023-03-13T10:19:51;8.35;;;2.25;;
2810;SDS011;1413;52.440;13.506;2023-03-13T10:22:21;8.82;;;1.73;;
2810;SDS011;1413;52.440;13.506;2023-03-13T10:24:53;5.85;;;1.25;;
2810;SDS011;1413;52.440;13.506;2023-03-13T10:27:23;6.35;;;1.35;;
2810;SDS011;1413;52.440;13.506;2023-03-13T10:29:50;9.43;;;2.15;;
2810;SDS011;1413;52.440;13.506;2023-03-13T10:32:18;6.85;;;1.70;;
2810;SDS011;1413;52.440;13.506;2023-03-13T10:34:51;8.15;;;1.58;;
2810;SDS011;1413;52.440;13.506;2023-03-13T10:37:20;5.00;;;1.52;;
2810;SDS011;1413;52.440;13.506;2023-03-13T10:39:48;5.70;;;1.30;;
2810;SDS011;1413;52.440;13.506;2023-03-13T10:42:25;5.65;;;1.40;;
2810;SDS011;1413;52.440;13.506;2023-03-13T10:44:59;7.05;;;1.30;;
2810;SDS011;1413;52.440;13.506;2023-03-13T10:47:29;5.57;;;1.52;;
2810;SDS011;1413;52.440;13.506;2023-03-13T10:49:59;6.43;;;1.40;;
2810;SDS011;1413;52.440;13.506;2023-03-13T10:52:29;5.75;;;1.30;;
2810;SDS011;1413;52.440;13.506;2023-03-13T10:54:58;7.35;;;1.60;;
2810;SDS011;1413;52.440;13.506;2023-03-13T10:57:28;3.72;;;1.20;;
2810;SDS011;1413;52.440;13.506;2023-03-13T10:59:56;5.72;;;1.20;;
2810;SDS011;1413;52.440;13.506;2023-03-13T11:02:26;4.93;;;1.00;;
2810;SDS011;1413;52.440;13.506;2023-03-13T11:04:54;4.55;;;0.88;;
2810;SDS011;1413;52.440;13.506;2023-03-13T11:07:25;2.65;;;0.90;;
2810;SDS011;1413;52.440;13.506;2023-03-13T11:09:59;5.13;;;0.75;;
2810;SDS011;1413;52.440;13.506;2023-03-13T11:12:33;5.05;;;1.33;;
2810;SDS011;1413;52.440;13.506;2023-03-13T11:15:01;4.82;;;1.00;;
2810;SDS011;1413;52.440;13.506;2023-03-13T11:17:32;4.00;;;1.10;;
2810;SDS011;1413;52.440;13.506;2023-03-13T11:20:02;4.72;;;1.55;;
2810;SDS011;1413;52.440;13.506;2023-03-13T11:22:36;5.38;;;1.23;;
2810;SDS011;1413;52.440;13.506;2023-03-13T11:25:11;4.63;;;0.90;;
2810;SDS011;1413;52.440;13.506;2023-03-13T11:27:45;4.60;;;0.80;;
2810;SDS011;1413;52.440;13.506;2023-03-13T11:30:16;4.40;;;0.77;;
2810;SDS011;1413;52.440;13.506;2023-03-13T11:32:50;4.10;;;1.08;;
2810;SDS011;1413;52.440;13.506;2023-03-13T11:35:20;3.80;;;0.85;;
2810;SDS011;1413;52.440;13.506;2023-03-13T11:37:49;3.45;;;0.75;;
2810;SDS011;1413;52.440;13.506;2023-03-13T11:40:19;4.20;;;0.90;;
2810;SDS011;1413;52.440;13.506;2023-03-13T11:43:05;3.33;;;0.80;;
2810;SDS011;1413;52.440;13.506;2023-03-13T11:46:08;5.15;;;1.15;;
2810;SDS011;1413;52.440;13.506;2023-03-13T11:48:42;3.50;;;0.70;;
2810;SDS011;1413;52.440;13.506;2023-03-13T11:51:14;3.88;;;0.90;;
2810;SDS011;1413;52.440;13.506;2023-03-13T12:13:30;5.38;;;0.77;;
2810;SDS011;1413;52.440;13.506;2023-03-13T12:15:59;2.30;;;0.70;;
2810;SDS011;1413;52.440;13.506;2023-03-13T12:18:29;1.88;;;0.50;;
2810;SDS011;1413;52.440;13.506;2023-03-13T12:20:59;2.78;;;0.60;;
2810;SDS011;1413;52.440;13.506;2023-03-13T12:23:30;3.13;;;0.60;;
2810;SDS011;1413;52.440;13.506;2023-03-13T12:26:03;2.85;;;0.57;;
2810;SDS011;1413;52.440;13.506;2023-03-13T12:28:35;2.13;;;0.50;;
2810;SDS011;1413;52.440;13.506;2023-03-13T12:31:06;1.90;;;0.45;;
2810;SDS011;1413;52.440;13.506;2023-03-13T12:33:39;3.15;;;0.68;;
2810;SDS011;1413;52.440;13.506;2023-03-13T12:36:11;1.80;;;0.57;;
2810;SDS011;1413;52.440;13.506;2023-03-13T12:41:11;1.55;;;0.40;;
2810;SDS011;1413;52.440;13.506;2023-03-13T12:43:41;1.45;;;0.40;;
2810;SDS011;1413;52.440;13.506;2023-03-13T12:46:36;2.42;;;0.50;;
2810;SDS011;1413;52.440;13.506;2023-03-13T12:49:11;2.97;;;0.77;;
2810;SDS011;1413;52.440;13.506;2023-03-13T12:51:44;1.48;;;0.40;;
2810;SDS011;1413;52.440;13.506;2023-03-13T12:54:24;2.50;;;0.50;;
2810;SDS011;1413;52.440;13.506;2023-03-13T12:59:40;1.48;;;0.43;;
2810;SDS011;1413;52.440;13.506;2023-03-13T13:02:14;1.67;;;0.45;;
2810;SDS011;1413;52.440;13.506;2023-03-13T13:04:43;1.92;;;0.40;;
2810;SDS011;1413;52.440;13.506;2023-03-13T13:07:20;1.75;;;0.38;;
2810;SDS011;1413;52.440;13.506;2023-03-13T13:10:13;2.60;;;0.60;;
2810;SDS011;1413;52.440;13.506;2023-03-13T13:12:43;1.20;;;0.30;;
2810;SDS011;1413;52.440;13.506;2023-03-13T13:15:14;2.30;;;0.52;;
2810;SDS011;1413;52.440;13.506;2023-03-13T13:18:02;1.65;;;0.50;;
2810;SDS011;1413;52.440;13.506;2023-03-13T13:20:42;2.00;;;0.55;;
2810;SDS011;1413;52.440;13.506;2023-03-13T13:23:24;2.38;;;0.50;;
2810;SDS011;1413;52.440;13.506;2023-03-13T13:25:53;1.83;;;0.43;;
2810;SDS011;1413;52.440;13.506;2023-03-13T13:28:25;1.52;;;0.50;;
2810;SDS011;1413;52.440;13.506;2023-03-13T13:31:00;2.78;;;0.60;;
2810;SDS011;1413;52.440;13.506;2023-03-13T13:33:38;2.80;;;0.52;;
2810;SDS011;1413;52.440;13.506;2023-03-13T13:36:26;2.33;;;0.60;;
2810;SDS011;1413;52.440;13.506;2023-03-13T13:38:54;2.13;;;0.60;;
2810;SDS011;1413;52.440;13.506;2023-03-13T13:41:23;1.83;;;0.60;;
2810;SDS011;1413;52.440;13.506;2023-03-13T13:46:22;1.05;;;0.32;;
2810;SDS011;1413;52.440;13.506;2023-03-13T13:51:42;3.25;;;0.60;;
2810;SDS011;1413;52.440;13.506;2023-03-13T13:54:31;6.30;;;0.70;;
2810;SDS011;1413;52.440;13.506;2023-03-13T13:56:59;4.65;;;0.73;;
2810;SDS011;1413;52.440;13.506;2023-03-13T13:59:33;2.38;;;0.60;;
2810;SDS011;1413;52.440;13.506;2023-03-13T14:02:13;4.53;;;0.60;;
2810;SDS011;1413;52.440;13.506;2023-03-13T14:04:41;2.80;;;0.63;;
2810;SDS011;1413;52.440;13.506;2023-03-13T14:07:11;1.73;;;0.75;;
2810;SDS011;1413;52.440;13.506;2023-03-13T14:09:45;3.63;;;0.68;;
2810;SDS011;1413;52.440;13.506;2023-03-13T14:12:24;3.63;;;0.70;;
2810;SDS011;1413;52.440;13.506;2023-03-13T14:15:05;2.95;;;0.60;;
2810;SDS011;1413;52.440;13.506;2023-03-13T14:17:36;3.60;;;0.68;;
2810;SDS011;1413;52.440;13.506;2023-03-13T14:20:04;2.35;;;0.68;;
2810;SDS011;1413;52.440;13.506;2023-03-13T14:22:44;2.78;;;0.77;;
2810;SDS011;1413;52.440;13.506;2023-03-13T14:25:13;2.58;;;0.88;;
2810;SDS011;1413;52.440;13.506;2023-03-13T14:27:43;6.38;;;0.77;;
2810;SDS011;1413;52.440;13.506;2023-03-13T14:30:13;2.33;;;0.63;;
2810;SDS011;1413;52.440;13.506;2023-03-13T14:32:41;3.42;;;0.90;;
2810;SDS011;1413;52.440;13.506;2023-03-13T14:35:10;2.60;;;0.63;;
2810;SDS011;1413;52.440;13.506;2023-03-13T14:37:40;2.40;;;0.60;;
2810;SDS011;1413;52.440;13.506;2023-03-13T14:40:08;1.88;;;0.60;;
2810;SDS011;1413;52.440;13.506;2023-03-13T14:42:38;2.30;;;0.80;;
2810;SDS011;1413;52.440;13.506;2023-03-13T14:45:12;2.22;;;0.70;;
2810;SDS011;1413;52.440;13.506;2023-03-13T14:47:40;3.05;;;0.90;;
2810;SDS011;1413;52.440;13.506;2023-03-13T14:50:09;3.00;;;0.70;;
2810;SDS011;1413;52.440;13.506;2023-03-13T14:52:37;2.47;;;0.65;;
2810;SDS011;1413;52.440;13.506;2023-03-13T14:55:24;3.50;;;0.70;;
2810;SDS011;1413;52.440;13.506;2023-03-13T14:57:54;2.42;;;0.70;;
2810;SDS011;1413;52.440;13.506;2023-03-13T15:00:30;4.88;;;0.73;;
2810;SDS011;1413;52.440;13.506;2023-03-13T15:05:46;2.33;;;0.77;;
2810;SDS011;1413;52.440;13.506;2023-03-13T15:08:14;5.93;;;0.82;;
2810;SDS011;1413;52.440;13.506;2023-03-13T15:10:43;2.75;;;0.82;;
2810;SDS011;1413;52.440;13.506;2023-03-13T15:13:16;3.60;;;1.00;;
2810;SDS011;1413;52.440;13.506;2023-03-13T15:15:45;2.83;;;0.77;;
2810;SDS011;1413;52.440;13.506;2023-03-13T15:18:16;4.20;;;1.50;;
2810;SDS011;1413;52.440;13.506;2023-03-13T15:20:48;6.70;;;2.85;;
2810;SDS011;1413;52.440;13.506;2023-03-13T15:23:16;7.05;;;3.10;;
2810;SDS011;1413;52.440;13.506;2023-03-13T15:25:43;6.25;;;2.50;;
2810;SDS011;1413;52.440;13.506;2023-03-13T15:28:12;10.10;;;2.78;;
2810;SDS011;1413;52.440;13.506;2023-03-13T15:30:42;5.53;;;1.80;;
2810;SDS011;1413;52.440;13.506;2023-03-13T15:33:11;3.25;;;1.08;;
2810;SDS011;1413;52.440;13.506;2023-03-13T15:35:39;3.22;;;0.85;;
2810;SDS011;1413;52.440;13.506;2023-03-13T15:38:09;3.92;;;1.50;;
2810;SDS011;1413;52.440;13.506;2023-03-13T15:40:38;3.60;;;1.10;;
2810;SDS011;1413;52.440;13.506;2023-03-13T15:43:06;3.97;;;1.00;;
2810;SDS011;1413;52.440;13.506;2023-03-13T15:45:34;5.32;;;1.20;;